Time;durP1;ratioP1;P1;durP2;ratioP2;P2;SDS_P1;SDS_P2;PMS_P1;PMS_P2;Temp;Humidity;BMP_temperature;BMP_pressure;BME280_temperature;BME280_humidity;BME280_pressure;Samples;Min_cycle;Max_cycle;Signal;HPM_P1;HPM_P2
2024/03/21 00:01:47;;;;;;;2.77;1.10;;;9.70;99.90;;;;;;4998653;28;20907;-80
2024/03/21 00:04:13;;;;;;;1.83;1.20;;;9.70;99.90;;;;;;4998204;28;20230;-80
2024/03/21 00:06:40;;;;;;;2.47;1.90;;;9.60;99.90;;;;;;4998314;28;20821;-80
2024/03/21 00:09:08;;;;;;;1.70;1.17;;;9.60;99.90;;;;;;4998592;28;20464;-80
2024/03/21 00:11:36;;;;;;;3.73;1.27;;;9.60;99.90;;;;;;4997856;28;20452;-80
2024/03/21 00:14:02;;;;;;;2.77;1.80;;;9.60;99.90;;;;;;4998178;28;20440;-80
2024/03/21 00:16:29;;;;;;;2.67;1.30;;;9.70;99.90;;;;;;4997036;28;20527;-80
2024/03/21 00:18:54;;;;;;;1.60;1.30;;;9.70;99.90;;;;;;4997427;28;20469;-80
2024/03/21 00:21:21;;;;;;;1.17;1.00;;;9.60;99.90;;;;;;4997967;28;20528;-80
2024/03/21 00:23:47;;;;;;;2.33;1.33;;;9.60;99.90;;;;;;4997831;28;20228;-80
2024/03/21 00:26:14;;;;;;;1.20;1.13;;;9.50;99.90;;;;;;4997587;28;20429;-80
2024/03/21 00:28:41;;;;;;;2.60;2.13;;;9.60;99.90;;;;;;4997409;28;20233;-80
2024/03/21 00:31:08;;;;;;;3.97;2.03;;;9.60;99.90;;;;;;4997827;28;20816;-80
2024/03/21 00:33:35;;;;;;;1.43;1.33;;;9.60;99.90;;;;;;4997811;28;20457;-80
2024/03/21 00:36:01;;;;;;;2.70;1.30;;;9.60;99.90;;;;;;4997284;28;20440;-80
2024/03/21 00:38:27;;;;;;;1.53;1.43;;;9.60;99.90;;;;;;4997535;28;20291;-80
2024/03/21 00:40:54;;;;;;;3.50;2.00;;;9.60;99.90;;;;;;4997143;28;20444;-80
2024/03/21 00:43:22;;;;;;;1.20;1.10;;;9.60;99.90;;;;;;4996594;28;20224;-80
2024/03/21 00:45:50;;;;;;;1.53;1.43;;;9.60;99.90;;;;;;4997117;28;21005;-80
2024/03/21 00:48:15;;;;;;;1.40;1.30;;;9.60;99.90;;;;;;4999161;28;20468;-80
2024/03/21 00:50:42;;;;;;;1.73;1.37;;;9.60;99.90;;;;;;5007371;28;20440;-81
2024/03/21 00:53:08;;;;;;;1.70;1.37;;;9.60;99.90;;;;;;5013354;28;20201;-81
2024/03/21 00:55:34;;;;;;;2.43;1.57;;;9.60;99.90;;;;;;5012581;28;20524;-81
2024/03/21 00:58:02;;;;;;;2.40;1.03;;;9.60;99.90;;;;;;5013104;28;20235;-82
2024/03/21 01:00:29;;;;;;;0.87;0.87;;;9.60;99.90;;;;;;5012963;28;20544;-81
2024/03/21 01:02:56;;;;;;;2.13;1.60;;;9.70;99.90;;;;;;5010930;28;20220;-81
2024/03/21 01:05:23;;;;;;;1.80;1.00;;;9.70;99.90;;;;;;5007267;28;20491;-81
2024/03/21 01:07:49;;;;;;;2.63;2.00;;;9.70;99.90;;;;;;5000185;28;20471;-81
2024/03/21 01:10:15;;;;;;;2.60;1.87;;;9.80;99.90;;;;;;5000242;28;20448;-81
2024/03/21 01:12:43;;;;;;;2.40;1.23;;;9.90;99.90;;;;;;4999418;28;20205;-80
2024/03/21 01:15:10;;;;;;;2.43;1.33;;;9.90;99.90;;;;;;4998735;28;20441;-80
2024/03/21 01:17:36;;;;;;;1.47;1.20;;;9.90;99.90;;;;;;4999495;28;20455;-80
2024/03/21 01:20:06;;;;;;;3.77;2.03;;;9.90;99.90;;;;;;4999291;28;20461;-80
2024/03/21 01:22:32;;;;;;;2.10;1.33;;;9.90;99.90;;;;;;4998757;28;20889;-80
2024/03/21 01:24:58;;;;;;;2.80;1.00;;;10.00;99.90;;;;;;4998503;28;20567;-80
2024/03/21 01:27:24;;;;;;;2.53;1.47;;;10.00;99.90;;;;;;5000340;28;20205;-80
2024/03/21 01:29:51;;;;;;;2.07;1.07;;;10.00;99.90;;;;;;5001870;28;20510;-80
2024/03/21 01:32:17;;;;;;;1.33;1.23;;;10.00;99.90;;;;;;5002352;28;20201;-80
2024/03/21 01:34:44;;;;;;;1.13;1.10;;;10.00;99.90;;;;;;5001964;28;20444;-80
2024/03/21 01:37:11;;;;;;;1.20;1.07;;;10.00;99.90;;;;;;5001965;28;20201;-80
2024/03/21 01:39:39;;;;;;;1.50;1.40;;;10.00;99.90;;;;;;5001453;28;20503;-80
2024/03/21 01:42:05;;;;;;;1.60;1.20;;;10.00;99.90;;;;;;5001337;28;20456;-80
2024/03/21 01:44:32;;;;;;;0.90;0.83;;;10.00;99.90;;;;;;5001087;28;20476;-80
2024/03/21 01:46:58;;;;;;;1.00;1.00;;;10.00;99.90;;;;;;5001810;28;20451;-80
2024/03/21 01:49:25;;;;;;;1.73;1.40;;;10.00;99.90;;;;;;5001400;28;20448;-80
2024/03/21 01:51:51;;;;;;;1.33;1.23;;;10.00;99.90;;;;;;5001410;28;20205;-80
2024/03/21 01:54:19;;;;;;;1.13;1.00;;;10.00;99.90;;;;;;5001014;28;20436;-80
2024/03/21 01:56:46;;;;;;;1.97;1.20;;;10.00;99.90;;;;;;5001198;28;20810;-80
2024/03/21 01:59:12;;;;;;;1.70;1.23;;;10.00;99.90;;;;;;5001077;28;20468;-80
2024/03/21 02:01:38;;;;;;;1.20;1.10;;;10.00;99.90;;;;;;5000643;28;20451;-80
2024/03/21 02:04:06;;;;;;;4.30;1.00;;;10.00;99.90;;;;;;5001130;28;20487;-80
2024/03/21 02:06:33;;;;;;;5.33;1.50;;;9.90;99.90;;;;;;5000181;28;20451;-80
2024/03/21 02:09:02;;;;;;;1.90;1.50;;;10.00;99.90;;;;;;5000740;28;20468;-80
2024/03/21 02:11:29;;;;;;;1.30;1.20;;;9.90;99.90;;;;;;5000447;28;20462;-80
2024/03/21 02:13:56;;;;;;;1.67;1.17;;;10.00;99.90;;;;;;5000141;28;20444;-80
2024/03/21 02:16:23;;;;;;;0.90;0.90;;;10.10;99.90;;;;;;5000075;28;20953;-80
2024/03/21 02:18:50;;;;;;;1.10;1.00;;;10.10;99.90;;;;;;5000348;28;20472;-80
2024/03/21 02:24:03;;;;;;;0.90;0.90;;;10.20;99.90;;;;;;5000038;28;21035;-80
2024/03/21 02:26:28;;;;;;;1.83;1.40;;;10.20;99.90;;;;;;5000124;28;20448;-80
2024/03/21 02:28:55;;;;;;;1.20;1.10;;;10.20;99.90;;;;;;4999687;28;21038;-80
2024/03/21 02:31:22;;;;;;;6.20;1.73;;;10.20;99.90;;;;;;4999971;28;20210;-80
2024/03/21 02:33:50;;;;;;;3.40;1.30;;;10.30;99.90;;;;;;4999649;28;20441;-80
2024/03/21 02:36:16;;;;;;;3.90;1.73;;;10.30;99.90;;;;;;4999371;28;20456;-80
2024/03/21 02:38:43;;;;;;;5.43;1.17;;;10.30;99.90;;;;;;4998945;28;20499;-80
2024/03/21 02:41:10;;;;;;;1.50;1.30;;;10.40;99.90;;;;;;4999070;28;20456;-80
2024/03/21 02:43:36;;;;;;;1.07;0.90;;;10.40;99.90;;;;;;4998843;28;20934;-80
2024/03/21 02:46:03;;;;;;;0.90;0.90;;;10.40;99.90;;;;;;4999666;28;20484;-80
2024/03/21 02:48:30;;;;;;;1.30;1.03;;;10.50;99.90;;;;;;4999202;28;20559;-80
2024/03/21 02:50:56;;;;;;;1.33;1.10;;;10.50;99.90;;;;;;4998966;28;20934;-80
2024/03/21 02:53:23;;;;;;;2.00;1.80;;;10.50;99.90;;;;;;5003076;28;20454;-80
2024/03/21 02:55:48;;;;;;;2.63;1.60;;;10.60;99.90;;;;;;5000219;28;20209;-81
2024/03/21 02:58:17;;;;;;;1.53;1.40;;;10.60;99.90;;;;;;5000170;28;20480;-80
2024/03/21 03:00:42;;;;;;;1.57;1.27;;;10.70;99.90;;;;;;4999915;28;20214;-80
2024/03/21 03:03:09;;;;;;;1.67;1.10;;;10.60;99.90;;;;;;4999557;28;20551;-80
2024/03/21 03:05:39;;;;;;;1.40;1.00;;;10.60;99.90;;;;;;5000095;28;20270;-81
2024/03/21 03:08:06;;;;;;;1.77;1.20;;;10.70;99.90;;;;;;4998852;28;20444;-80
2024/03/21 03:10:32;;;;;;;1.17;1.10;;;10.70;99.90;;;;;;4998964;28;20887;-80
2024/03/21 03:12:59;;;;;;;1.93;1.70;;;10.60;99.90;;;;;;4998568;28;20476;-80
2024/03/21 03:15:26;;;;;;;1.30;1.20;;;10.70;99.90;;;;;;4998425;28;20208;-80
2024/03/21 03:17:53;;;;;;;3.90;1.20;;;10.60;99.90;;;;;;5009097;28;20476;-82
2024/03/21 03:20:18;;;;;;;1.40;1.03;;;10.60;99.90;;;;;;5019362;28;20436;-81
2024/03/21 03:22:45;;;;;;;1.53;1.40;;;10.60;99.90;;;;;;5019228;28;20441;-82
2024/03/21 03:25:11;;;;;;;1.53;1.37;;;10.70;99.90;;;;;;5018723;28;20225;-81
2024/03/21 03:27:38;;;;;;;0.83;0.83;;;10.70;99.90;;;;;;5017258;28;21020;-82
2024/03/21 03:30:06;;;;;;;2.30;1.90;;;10.80;99.90;;;;;;5007814;28;20244;-81
2024/03/21 03:32:37;;;;;;;1.10;0.93;;;10.80;99.90;;;;;;5001312;28;20467;-81
2024/03/21 03:37:48;;;;;;;1.30;1.17;;;10.80;99.90;;;;;;4998199;28;20937;-80
2024/03/21 03:40:15;;;;;;;1.43;1.03;;;10.90;99.90;;;;;;4998493;28;20458;-80
2024/03/21 03:42:42;;;;;;;0.83;0.83;;;10.90;99.90;;;;;;4997734;28;20532;-80
2024/03/21 03:45:09;;;;;;;2.43;1.67;;;11.00;99.90;;;;;;4998153;28;20476;-80
2024/03/21 03:47:37;;;;;;;1.53;0.97;;;11.00;99.90;;;;;;4997704;28;20444;-80
2024/03/21 03:50:05;;;;;;;2.20;1.40;;;11.10;99.90;;;;;;4996512;28;20954;-80
2024/03/21 03:52:30;;;;;;;2.80;1.40;;;11.10;99.90;;;;;;4997720;28;20452;-80
2024/03/21 03:54:57;;;;;;;2.03;1.07;;;11.10;99.90;;;;;;4997356;28;20514;-80
2024/03/21 03:57:25;;;;;;;1.10;1.00;;;11.10;99.90;;;;;;4998257;28;20204;-81
2024/03/21 03:59:51;;;;;;;1.70;1.20;;;11.20;99.90;;;;;;4999343;28;20456;-81
2024/03/21 04:02:17;;;;;;;1.03;1.03;;;11.30;99.90;;;;;;4998958;28;20449;-81
2024/03/21 04:04:45;;;;;;;1.07;1.07;;;11.20;99.90;;;;;;4998154;28;20500;-81
2024/03/21 04:07:11;;;;;;;1.93;1.20;;;11.20;99.90;;;;;;4998323;28;20206;-81
2024/03/21 04:09:38;;;;;;;0.90;0.90;;;11.20;99.90;;;;;;4997713;28;20468;-81
2024/03/21 04:12:05;;;;;;;0.90;0.80;;;11.20;99.90;;;;;;4997646;28;20453;-81
2024/03/21 04:14:32;;;;;;;1.30;1.20;;;11.20;99.90;;;;;;4997516;28;20433;-81
2024/03/21 04:16:58;;;;;;;1.37;1.27;;;11.20;99.90;;;;;;4997277;28;20957;-81
2024/03/21 04:19:24;;;;;;;1.30;1.20;;;11.30;99.90;;;;;;4997409;28;20463;-81
2024/03/21 04:21:51;;;;;;;0.97;0.97;;;11.20;99.90;;;;;;4996892;28;20201;-81
2024/03/21 04:24:18;;;;;;;1.40;1.10;;;11.20;99.90;;;;;;4997460;28;20480;-81
2024/03/21 04:26:44;;;;;;;3.40;1.40;;;11.30;99.90;;;;;;4997491;28;20511;-81
2024/03/21 04:29:11;;;;;;;1.13;1.10;;;11.20;99.90;;;;;;4996813;28;20476;-81
2024/03/21 04:31:37;;;;;;;1.23;1.10;;;11.20;99.90;;;;;;4996999;28;20578;-81
2024/03/21 04:34:03;;;;;;;1.30;1.20;;;11.20;99.90;;;;;;4997126;28;20451;-81
2024/03/21 04:36:29;;;;;;;1.60;1.50;;;11.20;99.90;;;;;;4997251;28;20202;-81
2024/03/21 04:38:57;;;;;;;1.67;1.40;;;11.20;99.90;;;;;;4996764;28;20456;-80
2024/03/21 04:41:24;;;;;;;1.27;1.17;;;11.20;99.90;;;;;;4996251;28;20212;-81
2024/03/21 04:43:51;;;;;;;1.60;1.20;;;11.20;99.90;;;;;;4998183;28;20445;-81
2024/03/21 04:46:17;;;;;;;2.50;1.33;;;11.10;99.90;;;;;;4998323;28;20475;-81
2024/03/21 04:48:44;;;;;;;1.63;1.53;;;11.10;99.90;;;;;;5000024;28;20468;-81
2024/03/21 04:51:11;;;;;;;4.10;1.30;;;11.10;99.90;;;;;;4998533;28;20455;-81
2024/03/21 04:53:37;;;;;;;1.93;1.17;;;11.20;99.90;;;;;;4998707;28;20432;-80
2024/03/21 04:56:06;;;;;;;1.90;1.20;;;11.20;99.90;;;;;;4996891;28;20808;-80
2024/03/21 04:58:32;;;;;;;1.30;1.17;;;11.20;99.90;;;;;;4997030;28;20228;-81
2024/03/21 05:00:59;;;;;;;1.10;0.93;;;11.20;99.90;;;;;;4997158;28;20475;-80
2024/03/21 05:03:25;;;;;;;1.43;1.17;;;11.20;99.90;;;;;;5000047;28;20205;-82
2024/03/21 05:05:51;;;;;;;1.70;1.13;;;11.20;99.90;;;;;;4997671;28;20502;-80
2024/03/21 05:08:17;;;;;;;7.93;1.63;;;11.20;99.90;;;;;;4997093;28;20221;-80
2024/03/21 05:10:44;;;;;;;1.70;1.40;;;11.20;99.90;;;;;;4996875;28;20441;-80
2024/03/21 05:13:11;;;;;;;1.10;0.97;;;11.20;99.90;;;;;;4999997;28;20205;-81
2024/03/21 05:15:38;;;;;;;1.73;0.80;;;11.30;99.90;;;;;;4997221;28;20444;-81
2024/03/21 05:18:04;;;;;;;1.60;0.90;;;11.30;99.90;;;;;;4996923;28;20466;-81
2024/03/21 05:20:32;;;;;;;4.57;1.37;;;11.40;99.90;;;;;;4997772;28;20539;-81
2024/03/21 05:22:57;;;;;;;1.43;1.20;;;11.40;99.90;;;;;;4997032;28;20539;-80
2024/03/21 05:25:24;;;;;;;1.00;0.90;;;11.40;99.90;;;;;;4997133;28;20542;-80
2024/03/21 05:27:50;;;;;;;3.10;1.00;;;11.40;99.90;;;;;;4996774;28;20236;-80
2024/03/21 05:30:18;;;;;;;3.60;1.40;;;11.50;99.90;;;;;;4996057;28;20856;-80
2024/03/21 05:32:44;;;;;;;1.30;1.20;;;11.40;99.90;;;;;;4996638;28;20220;-80
2024/03/21 05:35:10;;;;;;;1.60;1.50;;;11.50;99.90;;;;;;4996582;28;20428;-81
2024/03/21 05:37:36;;;;;;;1.40;1.23;;;11.40;99.90;;;;;;4996694;28;20205;-80
2024/03/21 05:40:03;;;;;;;1.03;0.90;;;11.40;99.90;;;;;;4996625;28;20443;-80
2024/03/21 05:42:29;;;;;;;1.73;1.50;;;11.40;99.90;;;;;;4995843;28;20671;-80
2024/03/21 05:44:56;;;;;;;0.87;0.87;;;11.40;99.90;;;;;;4996324;28;20579;-80
2024/03/21 05:47:25;;;;;;;1.30;1.20;;;11.40;99.90;;;;;;4996710;28;20206;-80
2024/03/21 05:49:52;;;;;;;1.93;1.10;;;11.50;99.90;;;;;;4996381;28;20938;-80
2024/03/21 05:52:17;;;;;;;0.90;0.90;;;11.40;99.90;;;;;;4996267;28;20811;-81
2024/03/21 05:54:49;;;;;;;1.03;0.93;;;11.40;99.90;;;;;;4996291;28;20441;-80
2024/03/21 05:57:15;;;;;;;1.23;1.07;;;11.50;99.90;;;;;;4996399;28;20189;-80
2024/03/21 05:59:42;;;;;;;1.90;0.97;;;11.50;99.90;;;;;;4995912;28;20456;-81
2024/03/21 06:02:08;;;;;;;1.10;1.00;;;11.50;99.90;;;;;;4997464;28;20547;-81
2024/03/21 06:04:36;;;;;;;1.20;1.20;;;11.60;99.90;;;;;;4996178;28;20571;-80
2024/03/21 06:07:02;;;;;;;0.80;0.80;;;11.70;99.90;;;;;;4995821;28;20198;-80
2024/03/21 06:09:31;;;;;;;1.40;1.17;;;11.70;99.90;;;;;;4996039;28;20518;-80
2024/03/21 06:11:57;;;;;;;2.47;1.37;;;11.70;99.90;;;;;;4996124;28;20508;-81
2024/03/21 06:14:24;;;;;;;0.83;0.80;;;11.70;99.90;;;;;;4997933;28;20805;-80
2024/03/21 06:16:50;;;;;;;2.30;1.00;;;11.70;99.90;;;;;;5000131;28;20405;-80
2024/03/21 06:19:17;;;;;;;1.00;0.90;;;11.70;99.90;;;;;;4999457;28;20468;-80
2024/03/21 06:21:44;;;;;;;1.80;1.20;;;11.70;99.90;;;;;;5000151;28;20454;-80
2024/03/21 06:24:10;;;;;;;2.00;1.07;;;11.70;99.90;;;;;;4999440;28;20453;-80
2024/03/21 06:26:36;;;;;;;1.20;1.10;;;11.50;99.90;;;;;;4999842;28;20445;-80
2024/03/21 06:29:03;;;;;;;2.10;1.50;;;11.40;99.90;;;;;;4999068;28;20484;-81
2024/03/21 06:31:30;;;;;;;3.70;1.50;;;11.30;99.90;;;;;;4999799;28;20288;-80
2024/03/21 06:33:56;;;;;;;2.20;1.30;;;11.40;99.90;;;;;;4999921;28;20499;-81
2024/03/21 06:36:22;;;;;;;1.70;1.60;;;11.20;99.90;;;;;;5014865;28;20447;-81
2024/03/21 06:38:51;;;;;;;2.57;1.30;;;11.20;99.90;;;;;;5016778;28;20487;-81
2024/03/21 06:41:18;;;;;;;2.20;1.50;;;11.10;99.90;;;;;;5017397;28;20256;-82
2024/03/21 06:43:45;;;;;;;1.10;1.00;;;11.10;99.90;;;;;;5016588;28;20452;-82
2024/03/21 06:46:11;;;;;;;2.33;1.47;;;11.20;99.90;;;;;;5017614;28;20475;-81
2024/03/21 06:48:38;;;;;;;0.90;0.90;;;11.20;99.90;;;;;;5005295;28;20560;-81
2024/03/21 06:51:06;;;;;;;1.73;1.10;;;11.20;99.90;;;;;;5000492;28;20679;-81
2024/03/21 06:53:33;;;;;;;1.67;1.40;;;11.30;99.90;;;;;;4999863;28;20472;-81
2024/03/21 06:56:00;;;;;;;1.57;1.20;;;11.30;99.90;;;;;;5000108;28;20441;-81
2024/03/21 06:58:27;;;;;;;2.30;0.93;;;11.30;99.90;;;;;;4999956;28;20579;-81
2024/03/21 07:00:53;;;;;;;2.37;1.27;;;11.40;99.90;;;;;;4999726;28;21053;-80
2024/03/21 07:03:21;;;;;;;1.33;1.10;;;11.40;99.90;;;;;;5000102;28;20448;-81
2024/03/21 07:05:48;;;;;;;2.43;1.50;;;11.40;99.90;;;;;;4999749;28;20485;-81
2024/03/21 07:08:15;;;;;;;1.10;1.10;;;11.30;99.90;;;;;;4999863;28;20532;-81
2024/03/21 07:10:41;;;;;;;1.87;1.33;;;11.30;99.90;;;;;;5008061;28;20449;-82
2024/03/21 07:13:09;;;;;;;0.87;0.83;;;11.20;99.90;;;;;;5007872;28;20513;-81
2024/03/21 07:15:40;;;;;;;1.60;1.50;;;11.20;99.90;;;;;;5008138;28;20674;-82
2024/03/21 07:18:07;;;;;;;6.17;1.23;;;11.30;99.90;;;;;;5006931;28;20457;-82
2024/03/21 07:20:33;;;;;;;3.10;1.50;;;11.20;99.90;;;;;;5006061;28;20444;-81
2024/03/21 07:23:00;;;;;;;1.13;0.80;;;11.30;99.90;;;;;;5001435;28;20441;-81
2024/03/21 07:25:25;;;;;;;2.00;1.40;;;11.30;99.90;;;;;;5002598;28;20476;-81
2024/03/21 07:27:53;;;;;;;1.77;1.67;;;11.30;99.90;;;;;;4999834;28;20483;-81
2024/03/21 07:30:20;;;;;;;1.60;0.87;;;11.40;99.90;;;;;;4999660;28;20206;-81
2024/03/21 07:32:50;;;;;;;2.20;1.37;;;11.50;99.90;;;;;;4999428;28;20476;-80
2024/03/21 07:35:16;;;;;;;0.97;0.77;;;11.50;99.90;;;;;;4999858;28;20504;-81
2024/03/21 07:37:43;;;;;;;2.87;1.00;;;11.40;99.90;;;;;;4999327;28;20555;-81
2024/03/21 07:40:10;;;;;;;1.93;1.10;;;11.50;99.90;;;;;;4998688;28;20437;-80
2024/03/21 07:42:36;;;;;;;5.67;1.20;;;11.60;99.90;;;;;;4998776;28;20452;-80
2024/03/21 07:45:03;;;;;;;1.60;1.00;;;11.80;99.90;;;;;;4998847;28;20483;-81
2024/03/21 07:47:32;;;;;;;1.23;1.13;;;12.00;99.90;;;;;;4999166;28;20464;-80
2024/03/21 07:49:58;;;;;;;1.70;1.47;;;12.20;99.90;;;;;;4994382;28;20445;-80
2024/03/21 07:52:25;;;;;;;2.30;1.50;;;12.40;99.90;;;;;;4980193;28;20410;-80
2024/03/21 07:54:51;;;;;;;1.60;1.50;;;12.60;99.90;;;;;;4979788;28;20664;-80
2024/03/21 07:57:18;;;;;;;1.60;1.00;;;12.70;99.90;;;;;;4979386;28;20540;-80
2024/03/21 07:59:44;;;;;;;1.40;1.10;;;12.80;99.90;;;;;;4979235;28;20218;-81
2024/03/21 08:02:11;;;;;;;1.70;1.60;;;12.90;99.90;;;;;;4979422;28;20430;-80
2024/03/21 08:04:38;;;;;;;1.73;1.63;;;13.20;99.90;;;;;;4979230;28;20436;-80
2024/03/21 08:07:05;;;;;;;2.13;1.30;;;13.40;99.90;;;;;;4993530;28;20452;-80
2024/03/21 08:09:31;;;;;;;1.13;1.10;;;13.50;99.90;;;;;;4998245;28;20465;-80
2024/03/21 08:11:57;;;;;;;1.70;1.60;;;13.50;99.90;;;;;;4998584;28;20412;-80
2024/03/21 08:14:23;;;;;;;1.20;1.10;;;13.40;99.90;;;;;;4998434;28;20217;-80
2024/03/21 08:16:50;;;;;;;2.30;1.47;;;13.40;99.90;;;;;;4999214;28;20822;-80
2024/03/21 08:19:16;;;;;;;1.00;0.90;;;13.50;99.90;;;;;;4998380;28;20226;-81
2024/03/21 08:21:44;;;;;;;1.63;1.30;;;13.60;99.90;;;;;;4997863;28;20451;-80
2024/03/21 08:24:10;;;;;;;1.77;1.67;;;13.80;99.90;;;;;;4998084;28;20208;-80
2024/03/21 08:26:37;;;;;;;2.20;1.33;;;14.10;99.90;;;;;;4998343;28;20484;-80
2024/03/21 08:29:03;;;;;;;1.43;1.30;;;14.50;99.90;;;;;;5003596;28;20488;-81
2024/03/21 08:31:29;;;;;;;5.40;1.33;;;14.70;99.90;;;;;;4999304;28;20448;-82
2024/03/21 08:33:55;;;;;;;1.30;1.23;;;14.80;99.90;;;;;;4998946;28;20209;-82
2024/03/21 08:36:23;;;;;;;1.67;1.47;;;14.90;99.90;;;;;;4998051;28;20441;-82
2024/03/21 08:38:50;;;;;;;2.13;1.87;;;15.10;99.90;;;;;;4998185;28;20233;-82
2024/03/21 08:41:17;;;;;;;4.00;1.57;;;15.20;99.90;;;;;;4998297;28;20452;-82
2024/03/21 08:43:43;;;;;;;2.03;1.40;;;15.30;99.90;;;;;;4998567;28;20449;-81
2024/03/21 08:46:10;;;;;;;4.57;1.80;;;15.10;99.90;;;;;;4997669;28;20481;-81
2024/03/21 08:48:35;;;;;;;3.50;1.70;;;15.00;99.90;;;;;;4997529;28;20460;-81
2024/03/21 08:51:02;;;;;;;5.03;2.17;;;14.90;99.90;;;;;;4997456;28;20862;-81
2024/03/21 08:53:28;;;;;;;1.80;1.70;;;15.00;99.90;;;;;;4997578;28;20210;-81
2024/03/21 08:55:56;;;;;;;2.87;2.00;;;15.30;99.90;;;;;;4997384;28;20443;-82
2024/03/21 08:58:22;;;;;;;1.83;1.57;;;15.40;99.90;;;;;;4997351;28;20229;-81
2024/03/21 09:00:48;;;;;;;3.47;2.20;;;15.50;99.90;;;;;;4996959;28;20455;-81
2024/03/21 09:03:14;;;;;;;2.30;2.10;;;15.50;99.90;;;;;;4996711;28;20740;-81
2024/03/21 09:05:41;;;;;;;7.03;2.33;;;15.60;99.90;;;;;;4997001;28;20519;-81
2024/03/21 09:08:07;;;;;;;2.13;1.93;;;15.80;99.90;;;;;;4996762;28;20275;-81
2024/03/21 09:10:33;;;;;;;2.23;2.03;;;16.00;99.90;;;;;;4996987;28;20444;-81
2024/03/21 09:13:01;;;;;;;2.60;1.70;;;16.50;99.90;;;;;;4996922;28;20208;-81
2024/03/21 09:15:27;;;;;;;1.90;1.80;;;17.60;99.90;;;;;;4996820;28;20483;-81
2024/03/21 09:17:53;;;;;;;2.03;1.93;;;18.80;99.90;;;;;;4996363;28;20468;-81
2024/03/21 09:20:20;;;;;;;1.40;1.30;;;20.30;99.90;;;;;;4997328;28;20466;-81
2024/03/21 09:22:46;;;;;;;1.80;1.70;;;21.00;99.90;;;;;;4996603;28;20700;-82
2024/03/21 09:25:12;;;;;;;1.93;1.63;;;21.60;99.90;;;;;;4996596;28;20475;-82
2024/03/21 09:27:38;;;;;;;1.50;1.40;;;21.90;99.90;;;;;;4995964;28;20219;-82
2024/03/21 09:30:08;;;;;;;1.80;1.40;;;21.80;99.90;;;;;;4997712;28;20574;-83
2024/03/21 09:32:33;;;;;;;2.00;1.33;;;21.80;99.90;;;;;;4998238;28;20204;-83
2024/03/21 09:35:00;;;;;;;1.80;1.70;;;21.70;99.90;;;;;;4997180;28;20450;-83
2024/03/21 09:37:26;;;;;;;2.60;2.27;;;21.20;99.90;;;;;;4997360;28;20232;-83
2024/03/21 09:39:53;;;;;;;1.83;1.73;;;21.10;99.90;;;;;;4996360;28;20452;-83
2024/03/21 09:42:20;;;;;;;3.37;2.13;;;21.60;99.90;;;;;;4996553;28;20268;-83
2024/03/21 09:44:49;;;;;;;2.97;2.13;;;22.90;99.90;;;;;;4997811;28;20463;-87
2024/03/21 09:47:19;;;;;;;1.90;1.80;;;23.50;99.90;;;;;;4996985;28;20443;-87
2024/03/21 09:49:46;;;;;;;1.60;1.50;;;23.70;99.90;;;;;;5000106;28;20193;-87
2024/03/21 09:52:13;;;;;;;1.70;1.60;;;24.50;99.90;;;;;;5000291;28;20204;-87
2024/03/21 09:54:40;;;;;;;2.08;1.98;;;24.90;99.90;;;;;;5000606;28;20196;-87
2024/03/21 09:57:11;;;;;;;1.63;1.52;;;24.60;99.90;;;;;;5000556;28;20621;-87
2024/03/21 09:59:38;;;;;;;1.80;1.38;;;24.20;99.90;;;;;;5001649;28;20235;-87
2024/03/21 10:02:07;;;;;;;2.47;1.50;;;23.80;99.90;;;;;;5000720;28;20232;-86
2024/03/21 10:04:43;;;;;;;2.80;1.87;;;23.10;99.90;;;;;;4999008;28;20204;-89
2024/03/21 10:07:18;;;;;;;1.70;1.60;;;22.00;99.90;;;;;;5003881;28;20220;-89
2024/03/21 10:09:55;;;;;;;1.60;1.50;;;20.90;99.90;;;;;;5009465;28;20471;-86
2024/03/21 10:12:21;;;;;;;1.50;1.40;;;20.10;99.90;;;;;;5002156;28;20462;-86
2024/03/21 10:14:51;;;;;;;1.27;1.23;;;19.70;99.90;;;;;;4999719;28;20456;-88
2024/03/21 10:17:17;;;;;;;1.67;1.57;;;19.50;99.90;;;;;;5000692;28;20462;-87
2024/03/21 10:19:45;;;;;;;2.80;1.47;;;19.20;99.90;;;;;;4998862;28;20924;-87
2024/03/21 10:22:17;;;;;;;2.37;1.63;;;19.10;99.90;;;;;;5000095;28;20283;-86
2024/03/21 10:24:44;;;;;;;1.77;1.67;;;19.10;99.90;;;;;;4999401;28;20416;-85
2024/03/21 10:27:14;;;;;;;1.70;1.60;;;19.20;99.90;;;;;;4999397;28;20480;-85
2024/03/21 10:29:45;;;;;;;2.40;2.03;;;19.50;99.90;;;;;;4998475;28;20476;-86
2024/03/21 10:32:16;;;;;;;1.70;1.60;;;19.50;99.90;;;;;;4999231;28;20528;-87
2024/03/21 10:34:49;;;;;;;1.80;1.70;;;20.10;99.90;;;;;;4999325;28;20440;-86
2024/03/21 10:37:16;;;;;;;1.57;1.47;;;20.90;99.90;;;;;;5000431;28;20422;-87
2024/03/21 10:39:43;;;;;;;1.80;1.70;;;21.50;99.90;;;;;;5000316;28;20452;-87
2024/03/21 10:42:19;;;;;;;1.30;1.20;;;22.20;99.90;;;;;;5000041;28;20536;-88
2024/03/21 10:44:48;;;;;;;5.10;1.43;;;23.70;99.90;;;;;;5000112;28;20460;-88
2024/03/21 10:47:15;;;;;;;2.28;1.40;;;25.30;99.90;;;;;;5000021;28;20596;-87
2024/03/21 10:49:42;;;;;;;2.38;1.95;;;27.30;98.60;;;;;;5000803;28;20232;-87
2024/03/21 10:52:13;;;;;;;2.17;1.48;;;28.80;90.50;;;;;;4999994;28;20205;-88
2024/03/21 10:54:40;;;;;;;1.98;1.52;;;29.90;87.00;;;;;;5001368;28;20271;-88
2024/03/21 10:57:15;;;;;;;1.40;1.30;;;29.30;82.10;;;;;;5000172;28;20235;-88
2024/03/21 10:59:42;;;;;;;1.42;1.33;;;27.80;83.10;;;;;;4999965;28;20295;-88
2024/03/21 11:02:12;;;;;;;2.55;2.08;;;26.20;85.80;;;;;;5000490;28;20292;-87
2024/03/21 11:04:42;;;;;;;2.10;1.90;;;24.70;90.20;;;;;;5000662;28;20259;-87
2024/03/21 11:07:13;;;;;;;2.30;2.10;;;23.40;92.10;;;;;;5000236;28;20227;-87
2024/03/21 11:09:43;;;;;;;5.90;2.10;;;22.20;92.80;;;;;;5000585;28;20323;-87
2024/03/21 11:12:11;;;;;;;3.17;2.97;;;21.30;94.20;;;;;;5002130;28;20213;-86
2024/03/21 11:14:38;;;;;;;3.60;1.73;;;20.60;94.80;;;;;;5018656;28;20455;-86
2024/03/21 11:17:05;;;;;;;3.57;2.80;;;20.00;95.60;;;;;;5020848;28;20448;-86
2024/03/21 11:19:32;;;;;;;2.30;2.10;;;19.50;96.10;;;;;;5020965;28;20519;-86
2024/03/21 11:21:58;;;;;;;2.80;2.50;;;19.30;98.20;;;;;;5021034;28;20435;-86
2024/03/21 11:24:26;;;;;;;3.93;1.90;;;19.30;99.00;;;;;;5020818;28;20440;-86
2024/03/21 11:26:52;;;;;;;2.20;2.10;;;19.40;99.00;;;;;;5019048;28;20464;-87
2024/03/21 11:29:19;;;;;;;2.63;1.20;;;19.50;98.60;;;;;;5015290;28;20479;-87
2024/03/21 11:31:45;;;;;;;1.60;1.50;;;19.70;96.50;;;;;;5000105;28;20205;-87
2024/03/21 11:34:13;;;;;;;1.53;1.43;;;19.80;96.80;;;;;;4999655;28;20526;-87
2024/03/21 11:36:39;;;;;;;1.73;1.43;;;20.00;96.20;;;;;;4997588;28;20204;-88
2024/03/21 11:39:09;;;;;;;1.33;1.30;;;19.90;95.40;;;;;;4997808;28;20452;-87
2024/03/21 11:41:37;;;;;;;3.00;1.63;;;19.70;96.20;;;;;;4997898;28;20684;-87
2024/03/21 11:44:04;;;;;;;1.67;1.57;;;19.50;96.60;;;;;;4997821;28;20539;-88
2024/03/21 11:46:32;;;;;;;6.43;1.67;;;19.20;98.00;;;;;;4998654;28;20481;-86
2024/03/21 11:49:02;;;;;;;2.40;1.60;;;18.90;98.20;;;;;;4999205;28;20847;-86
2024/03/21 11:51:29;;;;;;;1.73;1.60;;;18.90;97.90;;;;;;4998002;28;20455;-86
2024/03/21 11:53:56;;;;;;;2.20;2.00;;;18.90;98.80;;;;;;5004783;28;20456;-83
2024/03/21 11:56:22;;;;;;;1.90;1.53;;;18.80;97.90;;;;;;5007237;28;20468;-84
2024/03/21 11:58:50;;;;;;;8.43;1.30;;;18.80;98.10;;;;;;5007621;28;21056;-84
2024/03/21 12:01:16;;;;;;;2.77;1.93;;;18.80;99.00;;;;;;5001619;28;20225;-83
2024/03/21 12:03:42;;;;;;;1.67;1.40;;;18.70;97.10;;;;;;5000391;28;20451;-85
2024/03/21 12:06:10;;;;;;;1.90;1.73;;;18.50;98.10;;;;;;4999949;28;20248;-88
2024/03/21 12:08:42;;;;;;;1.80;1.70;;;18.30;98.70;;;;;;4998421;28;20909;-88
2024/03/21 12:11:25;;;;;;;1.40;1.30;;;18.10;98.50;;;;;;5002819;28;20205;-88
2024/03/21 12:13:56;;;;;;;4.13;2.00;;;17.90;99.20;;;;;;4997367;28;20453;-88
2024/03/21 12:16:22;;;;;;;2.20;2.00;;;17.80;99.60;;;;;;4998593;28;20500;-88
2024/03/21 12:18:49;;;;;;;1.53;1.43;;;17.80;99.90;;;;;;4997563;28;20476;-88
2024/03/21 12:21:17;;;;;;;1.50;1.40;;;17.80;99.90;;;;;;5000327;28;20455;-88
2024/03/21 12:23:44;;;;;;;5.10;1.53;;;18.00;99.90;;;;;;4999236;28;20437;-88
2024/03/21 12:26:11;;;;;;;1.57;1.47;;;18.10;99.10;;;;;;4997400;28;20500;-88
2024/03/21 12:28:38;;;;;;;2.60;1.57;;;18.20;98.90;;;;;;4997761;28;20876;-88
2024/03/21 12:31:09;;;;;;;1.77;1.43;;;18.40;98.20;;;;;;4998241;28;20454;-88
2024/03/21 12:33:36;;;;;;;1.43;1.33;;;18.60;99.00;;;;;;4997774;28;20546;-88
2024/03/21 12:36:02;;;;;;;1.10;1.07;;;18.80;97.40;;;;;;4998069;28;20945;-88
2024/03/21 12:38:30;;;;;;;2.10;1.50;;;19.00;97.10;;;;;;4997023;28;20464;-88
2024/03/21 12:40:57;;;;;;;1.87;1.50;;;18.90;96.30;;;;;;4998702;28;20930;-88
2024/03/21 12:43:24;;;;;;;2.17;1.97;;;18.90;96.80;;;;;;4996844;28;21084;-88
2024/03/21 12:45:52;;;;;;;1.47;1.37;;;18.70;96.30;;;;;;4997568;28;20484;-88
2024/03/21 12:48:20;;;;;;;2.07;1.23;;;18.70;97.00;;;;;;4997566;28;20479;-88
2024/03/21 12:50:46;;;;;;;1.73;1.60;;;18.60;98.10;;;;;;4998234;28;20428;-88
2024/03/21 12:53:17;;;;;;;1.60;1.50;;;18.60;98.10;;;;;;4998005;28;20456;-88